Bda Gonzalez, Puerto Rico
Current Conditions -  °F | °C
As of 8:56 AM on Thursday 18 Dec 2014 (Local Time) from TJSJ Reporting Station
Scattered Clouds Scattered Clouds  
Wind Chill: 80°   Ceiling: Unl
Heat Index: 83°   Visibility: 10mi
Dew Point: 68°   Wind: 10mph
Humidity: 67%   Direction: 30°NNE
Pressure: 30.06"   Gusts: NA
Location:  18.3569°N, 66.0247°W
Report Text: TJSJ 181256Z 03009KT 10SM FEW032 SCT038 SCT045 27/20 A3006 RMK AO2 SLP177 T02670200
Loading
Personal Weather Stations






























Interactive Weather Map New forecast layout! Learn more

10-Day Weather Forecast

Advertisements
Track Severe Weather on mobile